sensor_id;sensor_type;location;lat;lon;timestamp;pressure;altitude;pressure_sealevel;temperature;humidity
68366;BME280;55283;51.466;5.478;2022-12-29T00:02:22;99936.25;;;19.55;44.94
68366;BME280;55283;51.466;5.478;2022-12-29T00:04:49;99953.38;;;19.57;45.22
68366;BME280;55283;51.466;5.478;2022-12-29T00:07:18;99949.81;;;19.56;45.17
68366;BME280;55283;51.466;5.478;2022-12-29T00:09:46;99949.91;;;19.53;45.19
68366;BME280;55283;51.466;5.478;2022-12-29T00:12:11;99946.34;;;19.52;45.15
68366;BME280;55283;51.466;5.478;2022-12-29T00:14:36;99943.09;;;19.54;45.18
68366;BME280;55283;51.466;5.478;2022-12-29T00:17:23;99927.56;;;19.53;44.95
68366;BME280;55283;51.466;5.478;2022-12-29T00:19:48;99904.41;;;19.52;44.80
68366;BME280;55283;51.466;5.478;2022-12-29T00:22:32;99896.81;;;19.53;45.25
68366;BME280;55283;51.466;5.478;2022-12-29T00:25:18;99900.38;;;19.53;45.05
68366;BME280;55283;51.466;5.478;2022-12-29T00:28:02;99898.84;;;19.52;45.12
68366;BME280;55283;51.466;5.478;2022-12-29T00:30:46;99891.34;;;19.49;45.31
68366;BME280;55283;51.466;5.478;2022-12-29T00:33:32;99892.59;;;19.48;45.28
68366;BME280;55283;51.466;5.478;2022-12-29T00:36:29;99882.66;;;19.47;45.16
68366;BME280;55283;51.466;5.478;2022-12-29T00:39:03;99881.41;;;19.48;45.21
68366;BME280;55283;51.466;5.478;2022-12-29T00:41:53;99885.88;;;19.45;45.32
68366;BME280;55283;51.466;5.478;2022-12-29T00:44:41;99884.19;;;19.48;45.27
68366;BME280;55283;51.466;5.478;2022-12-29T00:47:08;99873.00;;;19.48;45.20
68366;BME280;55283;51.466;5.478;2022-12-29T00:49:34;99877.34;;;19.49;45.37
68366;BME280;55283;51.466;5.478;2022-12-29T00:52:09;99870.56;;;19.50;45.27
68366;BME280;55283;51.466;5.478;2022-12-29T00:54:37;99867.75;;;19.50;45.40
68366;BME280;55283;51.466;5.478;2022-12-29T00:57:07;99856.25;;;19.48;45.33
68366;BME280;55283;51.466;5.478;2022-12-29T00:59:35;99864.97;;;19.50;45.34
68366;BME280;55283;51.466;5.478;2022-12-29T01:02:01;99861.69;;;19.52;45.42
68366;BME280;55283;51.466;5.478;2022-12-29T01:04:26;99851.75;;;19.51;45.36
68366;BME280;55283;51.466;5.478;2022-12-29T01:06:52;99856.25;;;19.48;45.27
68366;BME280;55283;51.466;5.478;2022-12-29T01:09:18;99852.19;;;19.49;45.33
68366;BME280;55283;51.466;5.478;2022-12-29T01:12:04;99850.22;;;19.50;45.33
68366;BME280;55283;51.466;5.478;2022-12-29T01:14:30;99839.47;;;19.48;45.41
68366;BME280;55283;51.466;5.478;2022-12-29T01:16:55;99839.03;;;19.50;45.28
68366;BME280;55283;51.466;5.478;2022-12-29T01:19:21;99846.75;;;19.45;45.42
68366;BME280;55283;51.466;5.478;2022-12-29T01:21:47;99856.72;;;19.47;45.38
68366;BME280;55283;51.466;5.478;2022-12-29T01:24:14;99848.63;;;19.49;45.20
68366;BME280;55283;51.466;5.478;2022-12-29T01:26:43;99846.16;;;19.51;45.42
68366;BME280;55283;51.466;5.478;2022-12-29T01:29:09;99845.41;;;19.50;45.41
68366;BME280;55283;51.466;5.478;2022-12-29T01:31:34;99839.16;;;19.46;45.35
68366;BME280;55283;51.466;5.478;2022-12-29T01:34:00;99832.34;;;19.47;45.37
68366;BME280;55283;51.466;5.478;2022-12-29T01:36:28;99826.28;;;19.49;45.40
68366;BME280;55283;51.466;5.478;2022-12-29T01:38:56;99829.53;;;19.47;45.11
68366;BME280;55283;51.466;5.478;2022-12-29T01:41:22;99833.56;;;19.46;45.22
68366;BME280;55283;51.466;5.478;2022-12-29T01:43:48;99821.47;;;19.49;45.22
68366;BME280;55283;51.466;5.478;2022-12-29T01:51:45;99823.19;;;19.47;45.25
68366;BME280;55283;51.466;5.478;2022-12-29T01:54:18;99840.72;;;19.47;45.22
68366;BME280;55283;51.466;5.478;2022-12-29T01:56:44;99823.63;;;19.45;45.13
68366;BME280;55283;51.466;5.478;2022-12-29T01:59:15;99820.50;;;19.43;45.36
68366;BME280;55283;51.466;5.478;2022-12-29T02:01:42;99840.41;;;19.45;45.42
68366;BME280;55283;51.466;5.478;2022-12-29T02:04:12;99841.94;;;19.46;45.33
68366;BME280;55283;51.466;5.478;2022-12-29T02:06:50;99826.09;;;19.43;45.13
68366;BME280;55283;51.466;5.478;2022-12-29T02:09:18;99847.53;;;19.46;45.26
68366;BME280;55283;51.466;5.478;2022-12-29T02:11:46;99834.34;;;19.47;44.99
68366;BME280;55283;51.466;5.478;2022-12-29T02:14:13;99842.28;;;19.48;44.88
68366;BME280;55283;51.466;5.478;2022-12-29T02:16:53;99849.88;;;19.48;44.98
68366;BME280;55283;51.466;5.478;2022-12-29T02:19:49;99844.72;;;19.46;45.04
68366;BME280;55283;51.466;5.478;2022-12-29T02:22:38;99839.63;;;19.44;44.91
68366;BME280;55283;51.466;5.478;2022-12-29T02:25:37;99840.06;;;19.43;45.25
68366;BME280;55283;51.466;5.478;2022-12-29T02:31:16;99848.44;;;19.43;45.00
68366;BME280;55283;51.466;5.478;2022-12-29T02:45:01;99805.91;;;19.39;45.28
68366;BME280;55283;51.466;5.478;2022-12-29T02:47:41;99805.75;;;19.42;45.33
68366;BME280;55283;51.466;5.478;2022-12-29T02:50:19;99809.78;;;19.41;45.10
68366;BME280;55283;51.466;5.478;2022-12-29T02:53:08;99805.75;;;19.42;45.33
68366;BME280;55283;51.466;5.478;2022-12-29T02:55:37;99799.84;;;19.40;45.32
68366;BME280;55283;51.466;5.478;2022-12-29T03:11:27;99786.66;;;19.41;45.20
68366;BME280;55283;51.466;5.478;2022-12-29T03:14:26;99788.81;;;19.37;45.28
68366;BME280;55283;51.466;5.478;2022-12-29T03:17:24;99785.88;;;19.40;45.34
68366;BME280;55283;51.466;5.478;2022-12-29T03:19:52;99793.47;;;19.40;45.18
68366;BME280;55283;51.466;5.478;2022-12-29T03:22:28;99782.00;;;19.38;45.26
68366;BME280;55283;51.466;5.478;2022-12-29T03:27:49;99796.25;;;19.40;45.18
68366;BME280;55283;51.466;5.478;2022-12-29T03:30:15;99784.31;;;19.39;44.95
68366;BME280;55283;51.466;5.478;2022-12-29T03:32:51;99772.50;;;19.35;44.92
68366;BME280;55283;51.466;5.478;2022-12-29T03:35:22;99779.50;;;19.40;44.98
68366;BME280;55283;51.466;5.478;2022-12-29T03:38:15;99781.06;;;19.41;45.02
68366;BME280;55283;51.466;5.478;2022-12-29T03:40:44;99784.63;;;19.41;44.80
68366;BME280;55283;51.466;5.478;2022-12-29T03:43:19;99785.88;;;19.40;45.06
68366;BME280;55283;51.466;5.478;2022-12-29T03:45:45;99798.63;;;19.41;44.77
68366;BME280;55283;51.466;5.478;2022-12-29T03:48:10;99791.94;;;19.39;45.08
68366;BME280;55283;51.466;5.478;2022-12-29T03:50:35;99768.47;;;19.36;44.96
68366;BME280;55283;51.466;5.478;2022-12-29T03:53:03;99787.44;;;19.41;44.95
68366;BME280;55283;51.466;5.478;2022-12-29T03:55:31;99775.00;;;19.42;44.84
68366;BME280;55283;51.466;5.478;2022-12-29T03:57:57;99787.44;;;19.41;44.86
68366;BME280;55283;51.466;5.478;2022-12-29T04:00:22;99804.97;;;19.42;44.81
68366;BME280;55283;51.466;5.478;2022-12-29T04:02:47;99807.00;;;19.41;45.06
68366;BME280;55283;51.466;5.478;2022-12-29T04:05:16;99816.50;;;19.44;44.83
68366;BME280;55283;51.466;5.478;2022-12-29T04:07:43;99812.91;;;19.43;44.70
68366;BME280;55283;51.466;5.478;2022-12-29T04:10:09;99813.69;;;19.44;44.58
68366;BME280;55283;51.466;5.478;2022-12-29T04:12:34;99798.16;;;19.43;44.89
68366;BME280;55283;51.466;5.478;2022-12-29T04:14:59;99799.72;;;19.44;44.60
68366;BME280;55283;51.466;5.478;2022-12-29T04:17:27;99798.16;;;19.43;44.97
68366;BME280;55283;51.466;5.478;2022-12-29T04:19:56;99814.91;;;19.43;44.65
68366;BME280;55283;51.466;5.478;2022-12-29T04:22:41;99814.47;;;19.44;44.89
68366;BME280;55283;51.466;5.478;2022-12-29T04:25:07;99840.06;;;19.43;44.90
68366;BME280;55283;51.466;5.478;2022-12-29T04:27:32;99828.59;;;19.41;45.06
68366;BME280;55283;51.466;5.478;2022-12-29T04:30:00;99830.13;;;19.42;45.04
68366;BME280;55283;51.466;5.478;2022-12-29T04:32:26;99836.16;;;19.40;44.95
68366;BME280;55283;51.466;5.478;2022-12-29T04:34:51;99838.50;;;19.42;44.74
68366;BME280;55283;51.466;5.478;2022-12-29T04:37:19;99831.22;;;19.44;44.88
68366;BME280;55283;51.466;5.478;2022-12-29T04:39:44;99830.13;;;19.42;45.11
68366;BME280;55283;51.466;5.478;2022-12-29T04:42:09;99838.50;;;19.42;44.87
68366;BME280;55283;51.466;5.478;2022-12-29T04:44:35;99824.88;;;19.44;44.87
68366;BME280;55283;51.466;5.478;2022-12-29T04:47:00;99835.91;;;19.48;44.95
68366;BME280;55283;51.466;5.478;2022-12-29T04:49:31;99853.31;;;19.52;44.83
68366;BME280;55283;51.466;5.478;2022-12-29T04:51:56;99846.50;;;19.53;44.84
68366;BME280;55283;51.466;5.478;2022-12-29T04:54:22;99864.03;;;19.53;44.68
68366;BME280;55283;51.466;5.478;2022-12-29T04:56:47;99854.88;;;19.53;44.86
68366;BME280;55283;51.466;5.478;2022-12-29T04:59:13;99860.78;;;19.55;44.90
68366;BME280;55283;51.466;5.478;2022-12-29T05:01:38;99857.69;;;19.53;44.61
68366;BME280;55283;51.466;5.478;2022-12-29T05:04:03;99862.03;;;19.54;44.70
68366;BME280;55283;51.466;5.478;2022-12-29T05:06:29;99875.56;;;19.55;44.54
68366;BME280;55283;51.466;5.478;2022-12-29T05:08:54;99871.19;;;19.54;44.53
68366;BME280;55283;51.466;5.478;2022-12-29T05:11:20;99878.34;;;19.55;44.63
68366;BME280;55283;51.466;5.478;2022-12-29T05:13:46;99889.19;;;19.53;44.71
68366;BME280;55283;51.466;5.478;2022-12-29T05:16:12;99879.25;;;19.52;44.91
68366;BME280;55283;51.466;5.478;2022-12-29T05:18:37;99886.41;;;19.53;44.53
68366;BME280;55283;51.466;5.478;2022-12-29T05:21:03;99889.97;;;19.54;44.51
68366;BME280;55283;51.466;5.478;2022-12-29T05:23:28;99889.19;;;19.53;44.77
68366;BME280;55283;51.466;5.478;2022-12-29T05:25:53;99890.75;;;19.54;44.77
68366;BME280;55283;51.466;5.478;2022-12-29T05:28:19;99889.19;;;19.53;44.74
68366;BME280;55283;51.466;5.478;2022-12-29T05:30:48;99878.03;;;19.53;44.77
68366;BME280;55283;51.466;5.478;2022-12-29T05:33:15;99891.66;;;19.51;44.68
68366;BME280;55283;51.466;5.478;2022-12-29T05:35:44;99887.66;;;19.52;44.66
68366;BME280;55283;51.466;5.478;2022-12-29T05:38:09;99898.34;;;19.54;44.73
68366;BME280;55283;51.466;5.478;2022-12-29T05:40:37;99903.94;;;19.54;44.62
68366;BME280;55283;51.466;5.478;2022-12-29T05:43:05;99906.75;;;19.54;44.71
68366;BME280;55283;51.466;5.478;2022-12-29T05:45:31;99896.34;;;19.54;44.51
68366;BME280;55283;51.466;5.478;2022-12-29T05:47:56;99917.16;;;19.53;44.53
68366;BME280;55283;51.466;5.478;2022-12-29T05:50:21;99916.38;;;19.53;44.46
68366;BME280;55283;51.466;5.478;2022-12-29T05:52:47;99908.44;;;19.51;44.73
68366;BME280;55283;51.466;5.478;2022-12-29T05:55:15;99921.19;;;19.52;44.66
68366;BME280;55283;51.466;5.478;2022-12-29T05:57:40;99911.22;;;19.51;44.51
68366;BME280;55283;51.466;5.478;2022-12-29T06:00:09;99925.22;;;19.51;44.65
68366;BME280;55283;51.466;5.478;2022-12-29T06:02:37;99919.75;;;19.48;44.91
68366;BME280;55283;51.466;5.478;2022-12-29T06:05:05;99910.59;;;19.47;44.61
68366;BME280;55283;51.466;5.478;2022-12-29T06:07:33;99917.41;;;19.46;44.75
68366;BME280;55283;51.466;5.478;2022-12-29T06:09:59;99927.81;;;19.45;44.85
68366;BME280;55283;51.466;5.478;2022-12-29T06:12:24;99917.41;;;19.46;44.72
68366;BME280;55283;51.466;5.478;2022-12-29T06:14:49;99928.28;;;19.44;44.91
68366;BME280;55283;51.466;5.478;2022-12-29T06:17:15;99931.84;;;19.44;44.88
68366;BME280;55283;51.466;5.478;2022-12-29T06:19:43;99917.53;;;19.42;45.14
68366;BME280;55283;51.466;5.478;2022-12-29T06:22:09;99919.91;;;19.44;45.17
68366;BME280;55283;51.466;5.478;2022-12-29T06:24:39;99911.97;;;19.42;45.00
68366;BME280;55283;51.466;5.478;2022-12-29T06:27:07;99909.63;;;19.41;45.36
68366;BME280;55283;51.466;5.478;2022-12-29T06:29:36;99907.13;;;19.43;45.51
68366;BME280;55283;51.466;5.478;2022-12-29T06:32:03;99918.13;;;19.37;45.43
68366;BME280;55283;51.466;5.478;2022-12-29T06:34:29;99927.56;;;19.31;45.87
68366;BME280;55283;51.466;5.478;2022-12-29T06:36:54;99915.47;;;19.34;45.91
68366;BME280;55283;51.466;5.478;2022-12-29T06:39:19;99913.91;;;19.33;46.01
68366;BME280;55283;51.466;5.478;2022-12-29T06:41:45;99920.09;;;19.28;46.16
68366;BME280;55283;51.466;5.478;2022-12-29T06:44:10;99906.13;;;19.28;46.30
68366;BME280;55283;51.466;5.478;2022-12-29T06:46:36;99925.53;;;19.31;46.17
68366;BME280;55283;51.466;5.478;2022-12-29T06:49:01;99918.84;;;19.29;46.25
68366;BME280;55283;51.466;5.478;2022-12-29T06:51:30;99916.00;;;19.41;46.42
68366;BME280;55283;51.466;5.478;2022-12-29T06:53:58;99911.38;;;19.48;46.26
68366;BME280;55283;51.466;5.478;2022-12-29T06:56:23;99918.22;;;19.47;46.21
68366;BME280;55283;51.466;5.478;2022-12-29T06:58:59;99920.19;;;19.46;47.07
68366;BME280;55283;51.466;5.478;2022-12-29T07:01:28;99913.88;;;19.55;46.96
68366;BME280;55283;51.466;5.478;2022-12-29T07:03:53;99912.22;;;19.57;46.76
68366;BME280;55283;51.466;5.478;2022-12-29T07:06:19;99941.16;;;19.63;47.29
68366;BME280;55283;51.466;5.478;2022-12-29T07:08:44;99944.84;;;19.60;46.86
68366;BME280;55283;51.466;5.478;2022-12-29T07:11:12;99926.53;;;19.59;47.24
68366;BME280;55283;51.466;5.478;2022-12-29T07:13:39;99945.63;;;19.61;47.50
68366;BME280;55283;51.466;5.478;2022-12-29T07:16:07;99949.81;;;19.56;45.78
68366;BME280;55283;51.466;5.478;2022-12-29T07:18:41;99959.03;;;19.44;41.75
68366;BME280;55283;51.466;5.478;2022-12-29T07:21:07;99951.81;;;19.34;42.18
68366;BME280;55283;51.466;5.478;2022-12-29T07:23:32;99931.28;;;19.28;42.89
68366;BME280;55283;51.466;5.478;2022-12-29T07:26:08;99961.38;;;19.23;43.68
68366;BME280;55283;51.466;5.478;2022-12-29T07:28:35;99960.56;;;19.23;44.06
68366;BME280;55283;51.466;5.478;2022-12-29T07:31:01;99976.69;;;19.19;44.33
68366;BME280;55283;51.466;5.478;2022-12-29T07:33:30;99980.59;;;19.21;44.25
68366;BME280;55283;51.466;5.478;2022-12-29T07:35:56;99985.19;;;19.15;44.44
68366;BME280;55283;51.466;5.478;2022-12-29T07:38:22;99978.38;;;19.16;44.50
68366;BME280;55283;51.466;5.478;2022-12-29T07:40:47;99984.72;;;19.17;44.55
68366;BME280;55283;51.466;5.478;2022-12-29T07:43:13;99981.50;;;19.18;44.64
68366;BME280;55283;51.466;5.478;2022-12-29T07:45:38;99969.84;;;19.20;44.47
68366;BME280;55283;51.466;5.478;2022-12-29T07:48:07;99981.50;;;19.18;44.84
68366;BME280;55283;51.466;5.478;2022-12-29T07:50:34;99969.69;;;19.14;45.11
68366;BME280;55283;51.466;5.478;2022-12-29T07:52:59;99972.91;;;19.13;45.01
68366;BME280;55283;51.466;5.478;2022-12-29T07:55:30;99971.66;;;19.14;44.82
68366;BME280;55283;51.466;5.478;2022-12-29T07:57:56;99981.63;;;19.15;46.01
68366;BME280;55283;51.466;5.478;2022-12-29T08:00:22;99976.81;;;19.15;46.18
68366;BME280;55283;51.466;5.478;2022-12-29T08:02:50;99971.88;;;19.19;46.44
68366;BME280;55283;51.466;5.478;2022-12-29T08:05:15;99985.47;;;19.30;46.00
68366;BME280;55283;51.466;5.478;2022-12-29T08:07:45;99971.94;;;19.29;46.24
68366;BME280;55283;51.466;5.478;2022-12-29T08:10:11;100010.34;;;19.37;46.43
68366;BME280;55283;51.466;5.478;2022-12-29T08:12:40;99987.75;;;19.44;46.15
68366;BME280;55283;51.466;5.478;2022-12-29T08:15:07;100002.50;;;19.45;46.57
68366;BME280;55283;51.466;5.478;2022-12-29T08:17:33;99999.84;;;19.41;45.67
68366;BME280;55283;51.466;5.478;2022-12-29T08:20:01;99988.81;;;19.38;45.62
68366;BME280;55283;51.466;5.478;2022-12-29T08:22:31;100023.25;;;19.35;45.73
68366;BME280;55283;51.466;5.478;2022-12-29T08:24:56;100004.91;;;19.34;45.87
68366;BME280;55283;51.466;5.478;2022-12-29T08:27:22;100016.75;;;19.38;46.51
68366;BME280;55283;51.466;5.478;2022-12-29T08:29:47;100014.84;;;19.35;46.16
68366;BME280;55283;51.466;5.478;2022-12-29T08:32:18;100006.78;;;19.37;46.24
68366;BME280;55283;51.466;5.478;2022-12-29T08:34:44;100016.28;;;19.39;46.56
68366;BME280;55283;51.466;5.478;2022-12-29T08:37:11;100000.63;;;19.42;46.64
68366;BME280;55283;51.466;5.478;2022-12-29T08:39:39;100003.75;;;19.44;46.67
68366;BME280;55283;51.466;5.478;2022-12-29T08:42:04;100017.13;;;19.49;46.50
68366;BME280;55283;51.466;5.478;2022-12-29T08:44:30;99991.97;;;19.49;46.49
68366;BME280;55283;51.466;5.478;2022-12-29T08:46:57;100020.59;;;19.53;46.43
68366;BME280;55283;51.466;5.478;2022-12-29T08:49:30;100016.25;;;19.52;46.44
68366;BME280;55283;51.466;5.478;2022-12-29T08:52:01;100001.59;;;19.48;46.45
68366;BME280;55283;51.466;5.478;2022-12-29T08:54:26;100006.75;;;19.50;46.78
68366;BME280;55283;51.466;5.478;2022-12-29T08:56:51;100007.84;;;19.52;46.65
68366;BME280;55283;51.466;5.478;2022-12-29T08:59:18;100006.59;;;19.53;46.55
68366;BME280;55283;51.466;5.478;2022-12-29T09:01:44;100015.00;;;19.53;46.94
68366;BME280;55283;51.466;5.478;2022-12-29T09:04:09;100001.00;;;19.53;46.83
68366;BME280;55283;51.466;5.478;2022-12-29T09:06:35;100020.59;;;19.53;46.75
68366;BME280;55283;51.466;5.478;2022-12-29T09:09:00;100004.16;;;19.55;46.52
68366;BME280;55283;51.466;5.478;2022-12-29T09:11:26;100023.28;;;19.57;46.57
68366;BME280;55283;51.466;5.478;2022-12-29T09:13:54;100031.66;;;19.57;46.46
68366;BME280;55283;51.466;5.478;2022-12-29T09:16:21;100030.88;;;19.56;46.52
68366;BME280;55283;51.466;5.478;2022-12-29T09:18:47;100032.44;;;19.57;45.86
68366;BME280;55283;51.466;5.478;2022-12-29T09:21:13;100038.47;;;19.56;45.95
68366;BME280;55283;51.466;5.478;2022-12-29T09:23:38;100012.97;;;19.54;46.67
68366;BME280;55283;51.466;5.478;2022-12-29T09:26:04;100035.81;;;19.52;46.74
68366;BME280;55283;51.466;5.478;2022-12-29T09:28:34;100023.72;;;19.55;46.40
68366;BME280;55283;51.466;5.478;2022-12-29T09:31:00;100034.22;;;19.51;45.81
68366;BME280;55283;51.466;5.478;2022-12-29T09:33:26;100043.28;;;19.55;46.17
68366;BME280;55283;51.466;5.478;2022-12-29T09:35:56;100061.28;;;19.54;46.46
68366;BME280;55283;51.466;5.478;2022-12-29T09:38:23;100043.72;;;19.54;46.80
68366;BME280;55283;51.466;5.478;2022-12-29T09:40:51;100058.47;;;19.54;46.89
68366;BME280;55283;51.466;5.478;2022-12-29T09:51:26;100086.44;;;19.54;46.29
68366;BME280;55283;51.466;5.478;2022-12-29T09:53:57;100079.19;;;19.57;46.53
68366;BME280;55283;51.466;5.478;2022-12-29T09:56:25;100104.22;;;19.60;46.83
68366;BME280;55283;51.466;5.478;2022-12-29T10:01:51;100094.16;;;19.50;46.57
68366;BME280;55283;51.466;5.478;2022-12-29T10:04:18;100112.06;;;19.53;44.21
68366;BME280;55283;51.466;5.478;2022-12-29T10:15:44;100107.03;;;19.48;45.18
68366;BME280;55283;51.466;5.478;2022-12-29T10:18:35;100132.63;;;19.46;45.31
68366;BME280;55283;51.466;5.478;2022-12-29T10:23:46;100152.19;;;19.46;45.50
68366;BME280;55283;51.466;5.478;2022-12-29T10:26:17;100161.94;;;19.41;46.08
68366;BME280;55283;51.466;5.478;2022-12-29T10:28:45;100157.47;;;19.44;45.75
68366;BME280;55283;51.466;5.478;2022-12-29T10:31:20;100176.34;;;19.40;46.03
68366;BME280;55283;51.466;5.478;2022-12-29T10:33:49;100157.13;;;19.42;46.12
68366;BME280;55283;51.466;5.478;2022-12-29T10:36:24;100174.56;;;19.46;45.78
68366;BME280;55283;51.466;5.478;2022-12-29T10:39:20;100175.16;;;19.41;46.35
68366;BME280;55283;51.466;5.478;2022-12-29T10:41:57;100159.81;;;19.45;45.85
68366;BME280;55283;51.466;5.478;2022-12-29T10:44:31;100181.16;;;19.52;45.80
68366;BME280;55283;51.466;5.478;2022-12-29T10:47:05;100192.13;;;19.47;46.35
68366;BME280;55283;51.466;5.478;2022-12-29T10:49:37;100194.03;;;19.50;46.89
68366;BME280;55283;51.466;5.478;2022-12-29T10:52:04;100193.69;;;19.48;46.42
68366;BME280;55283;51.466;5.478;2022-12-29T10:54:41;100208.09;;;19.46;46.73
68366;BME280;55283;51.466;5.478;2022-12-29T10:59:49;100206.53;;;19.45;46.47
68366;BME280;55283;51.466;5.478;2022-12-29T11:07:23;100218.06;;;19.47;46.85
68366;BME280;55283;51.466;5.478;2022-12-29T11:09:52;100225.34;;;19.44;46.85
68366;BME280;55283;51.466;5.478;2022-12-29T11:12:23;100223.44;;;19.41;47.31
68366;BME280;55283;51.466;5.478;2022-12-29T11:17:47;100248.03;;;19.34;47.57
68366;BME280;55283;51.466;5.478;2022-12-29T11:22:44;100229.13;;;19.51;47.34
68366;BME280;55283;51.466;5.478;2022-12-29T11:25:12;100236.59;;;19.54;47.11
68366;BME280;55283;51.466;5.478;2022-12-29T11:28:13;100244.22;;;19.53;47.08
68366;BME280;55283;51.466;5.478;2022-12-29T11:30:42;100239.31;;;19.57;47.15
68366;BME280;55283;51.466;5.478;2022-12-29T11:33:11;100257.41;;;19.53;47.31
68366;BME280;55283;51.466;5.478;2022-12-29T11:35:40;100251.75;;;19.56;47.17
68366;BME280;55283;51.466;5.478;2022-12-29T11:38:22;100240.56;;;19.56;47.53
68366;BME280;55283;51.466;5.478;2022-12-29T11:40:48;100259.66;;;19.58;47.27
68366;BME280;55283;51.466;5.478;2022-12-29T11:43:25;100246.78;;;19.48;47.72
68366;BME280;55283;51.466;5.478;2022-12-29T11:45:53;100248.69;;;19.51;47.60
68366;BME280;55283;51.466;5.478;2022-12-29T11:48:22;100251.16;;;19.49;47.92
68366;BME280;55283;51.466;5.478;2022-12-29T11:50:57;100244.00;;;19.48;47.83
68366;BME280;55283;51.466;5.478;2022-12-29T11:53:31;100263.09;;;19.49;48.05
68366;BME280;55283;51.466;5.478;2022-12-29T11:56:01;100253.50;;;19.50;48.18
68366;BME280;55283;51.466;5.478;2022-12-29T11:58:32;100251.63;;;19.47;48.10
68366;BME280;55283;51.466;5.478;2022-12-29T12:01:10;100252.50;;;19.57;47.69
68366;BME280;55283;51.466;5.478;2022-12-29T12:03:44;100262.56;;;19.54;47.79
68366;BME280;55283;51.466;5.478;2022-12-29T12:06:15;100259.44;;;19.52;48.14
68366;BME280;55283;51.466;5.478;2022-12-29T12:08:47;100258.31;;;19.50;48.12
68366;BME280;55283;51.466;5.478;2022-12-29T12:11:18;100270.72;;;19.49;48.42
68366;BME280;55283;51.466;5.478;2022-12-29T12:16:56;100255.41;;;19.53;48.12
68366;BME280;55283;51.466;5.478;2022-12-29T12:19:48;100264.56;;;19.54;48.18
68366;BME280;55283;51.466;5.478;2022-12-29T12:22:27;100264.81;;;19.59;48.07
68366;BME280;55283;51.466;5.478;2022-12-29T12:25:09;100257.31;;;19.56;48.11
68366;BME280;55283;51.466;5.478;2022-12-29T12:30:29;100260.91;;;19.57;47.66
68366;BME280;55283;51.466;5.478;2022-12-29T12:33:22;100252.16;;;19.55;47.85
68366;BME280;55283;51.466;5.478;2022-12-29T12:52:43;100278.00;;;19.72;47.25
68366;BME280;55283;51.466;5.478;2022-12-29T13:00:19;100293.78;;;19.65;47.44
68366;BME280;55283;51.466;5.478;2022-12-29T13:16:35;100270.06;;;19.70;46.81
68366;BME280;55283;51.466;5.478;2022-12-29T13:27:04;100299.38;;;19.65;47.03
68366;BME280;55283;51.466;5.478;2022-12-29T13:29:59;100306.97;;;19.65;46.89
68366;BME280;55283;51.466;5.478;2022-12-29T13:32:49;100312.09;;;19.66;46.73
68366;BME280;55283;51.466;5.478;2022-12-29T13:38:16;100308.53;;;19.66;47.08
68366;BME280;55283;51.466;5.478;2022-12-29T13:40:47;100318.38;;;19.71;47.10
68366;BME280;55283;51.466;5.478;2022-12-29T13:43:18;100319.72;;;19.66;46.82
68366;BME280;55283;51.466;5.478;2022-12-29T13:49:26;100327.56;;;19.71;46.67
68366;BME280;55283;51.466;5.478;2022-12-29T13:51:55;100324.09;;;19.67;46.82
68366;BME280;55283;51.466;5.478;2022-12-29T13:57:37;100323.75;;;19.65;47.01
68366;BME280;55283;51.466;5.478;2022-12-29T14:00:19;100319.19;;;19.58;47.07
68366;BME280;55283;51.466;5.478;2022-12-29T14:07:46;100340.19;;;19.63;46.91
68366;BME280;55283;51.466;5.478;2022-12-29T14:15:41;100338.50;;;19.65;47.09
68366;BME280;55283;51.466;5.478;2022-12-29T14:23:41;100343.75;;;19.63;47.08
68366;BME280;55283;51.466;5.478;2022-12-29T14:31:49;100329.00;;;19.63;46.85
68366;BME280;55283;51.466;5.478;2022-12-29T14:39:39;100352.50;;;19.65;46.70
68366;BME280;55283;51.466;5.478;2022-12-29T14:47:20;100348.13;;;19.64;46.84
68366;BME280;55283;51.466;5.478;2022-12-29T14:49:51;100346.13;;;19.65;46.71
68366;BME280;55283;51.466;5.478;2022-12-29T14:52:23;100352.16;;;19.63;46.69
68366;BME280;55283;51.466;5.478;2022-12-29T14:57:28;100362.56;;;19.63;46.85
68366;BME280;55283;51.466;5.478;2022-12-29T15:00:01;100355.97;;;19.57;47.13
68366;BME280;55283;51.466;5.478;2022-12-29T15:02:33;100364.91;;;19.64;46.87
68366;BME280;55283;51.466;5.478;2022-12-29T15:05:00;100367.25;;;19.66;46.75
68366;BME280;55283;51.466;5.478;2022-12-29T15:07:28;100369.28;;;19.65;46.66
68366;BME280;55283;51.466;5.478;2022-12-29T15:10:05;100357.19;;;19.68;46.40
68366;BME280;55283;51.466;5.478;2022-12-29T15:12:37;100370.75;;;19.70;46.83
68366;BME280;55283;51.466;5.478;2022-12-29T15:15:26;100378.44;;;19.66;46.49
68366;BME280;55283;51.466;5.478;2022-12-29T15:17:55;100372.72;;;19.70;46.42
68366;BME280;55283;51.466;5.478;2022-12-29T15:20:28;100385.50;;;19.71;46.46
68366;BME280;55283;51.466;5.478;2022-12-29T15:23:22;100381.81;;;19.74;46.64
68366;BME280;55283;51.466;5.478;2022-12-29T15:25:58;100373.84;;;19.72;46.70
68366;BME280;55283;51.466;5.478;2022-12-29T15:28:25;100396.81;;;19.67;46.78
68366;BME280;55283;51.466;5.478;2022-12-29T15:30:56;100393.31;;;19.63;46.87
68366;BME280;55283;51.466;5.478;2022-12-29T15:33:24;100393.31;;;19.63;46.98
68366;BME280;55283;51.466;5.478;2022-12-29T15:35:53;100392.00;;;19.67;47.06
68366;BME280;55283;51.466;5.478;2022-12-29T15:38:24;100384.03;;;19.66;47.52
68366;BME280;55283;51.466;5.478;2022-12-29T15:40:55;100384.91;;;19.63;46.92
68366;BME280;55283;51.466;5.478;2022-12-29T15:46:05;100414.13;;;19.75;46.65
68366;BME280;55283;51.466;5.478;2022-12-29T15:48:33;100384.81;;;19.66;46.70
68366;BME280;55283;51.466;5.478;2022-12-29T15:51:07;100390.63;;;19.72;46.63
68366;BME280;55283;51.466;5.478;2022-12-29T15:53:39;100400.59;;;19.73;46.21
68366;BME280;55283;51.466;5.478;2022-12-29T15:56:09;100399.81;;;19.73;46.30
68366;BME280;55283;51.466;5.478;2022-12-29T15:58:44;100409.44;;;19.72;46.59
68366;BME280;55283;51.466;5.478;2022-12-29T16:01:24;100399.25;;;19.65;46.33